Aviation Digital Data Service (ADDS)

Output produced by METARs form (1206 UTC 24 March 2017)
found at http://www.aviationweather.gov/adds/metars/
 
HDAM 240900Z 08012KT 9999 SCT020 SCT026 30/23 Q1012
HDAM 241100Z 2412/2512 10010KT 9/9 SCT020 
     BECMG 2415/2418 VRB03KT FEW020 
     BECMG 2500/2506 00000KT SCT020